Lockwood, Montana
Current Conditions -  °F | °C
As of 2:53 AM on Friday 31 Oct 2014 (Local Time) from KBIL Reporting Station
Scattered Clouds Scattered Clouds  
Wind Chill: 36°   Ceiling: Unl
Heat Index: 40°   Visibility: 10mi
Dew Point: 31°   Wind: 6mph
Humidity: 70%   Direction: 360°N
Pressure: 30.1"   Gusts: NA
Location:  45.6311°N, 108.351°W
Report Text: KBIL 310853Z 36005KT 10SM FEW220 SCT250 04/M01 A3010 RMK AO2 SLP195 T00441006 58021
Loading
Personal Weather Stations






























Interactive Weather Map
Tropical Storm Tracking
New forecast layout! Learn more

10-Day Weather Forecast

Advertisements
Track Severe Weather on mobile